createdAt,value
2018-04-12T00:01:35.321Z,65.40
2018-04-12T00:04:02.856Z,64.40
2018-04-12T00:06:29.107Z,66.60
2018-04-12T00:08:55.345Z,69.20
2018-04-12T00:11:21.584Z,65.10
2018-04-12T00:13:47.841Z,76.90
2018-04-12T00:16:15.627Z,66.60
2018-04-12T00:18:41.815Z,73.30
2018-04-12T00:21:08.000Z,75.20
2018-04-12T00:23:34.239Z,65.10
2018-04-12T00:26:01.132Z,67.80
2018-04-12T00:28:27.364Z,70.50
2018-04-12T00:30:54.472Z,73.60
2018-04-12T00:33:20.735Z,76.20
2018-04-12T00:35:46.901Z,78.60
2018-04-12T00:38:13.151Z,83.60
2018-04-12T00:40:40.070Z,64.90
2018-04-12T00:43:06.298Z,78.10
2018-04-12T00:45:33.248Z,65.50
2018-04-12T00:47:59.491Z,74.30
2018-04-12T00:50:25.670Z,78.50
2018-04-12T00:52:52.040Z,78.50
2018-04-12T00:55:18.286Z,77.20
2018-04-12T00:57:44.545Z,74.50
2018-04-12T01:00:12.358Z,65.80
2018-04-12T01:02:39.416Z,65.80
2018-04-12T01:05:05.651Z,65.20
2018-04-12T01:07:32.566Z,64.90
2018-04-12T01:09:59.533Z,65.60
2018-04-12T01:12:25.739Z,73.10
2018-04-12T01:14:53.555Z,65.30
2018-04-12T01:17:19.730Z,65.90
2018-04-12T01:19:46.286Z,65.50
2018-04-12T01:22:12.842Z,65.40
2018-04-12T01:24:39.022Z,70.90
2018-04-12T01:27:05.216Z,68.80
2018-04-12T01:29:31.794Z,65.90
2018-04-12T01:31:59.379Z,65.90
2018-04-12T01:34:26.340Z,65.70
2018-04-12T01:36:52.582Z,73.30
2018-04-12T01:39:19.158Z,65.80
2018-04-12T01:41:46.102Z,67.30
2018-04-12T01:44:13.109Z,66.60
2018-04-12T01:46:39.297Z,68.70
2018-04-12T01:49:06.199Z,66.40
2018-04-12T01:51:33.192Z,66.90
2018-04-12T01:53:59.766Z,66.60
2018-04-12T01:56:26.039Z,66.70
2018-04-12T01:58:52.796Z,67.00
2018-04-12T02:01:19.728Z,67.00
2018-04-12T02:03:45.913Z,71.60
2018-04-12T02:06:12.501Z,66.70
2018-04-12T02:08:39.450Z,67.40
2018-04-12T02:11:06.431Z,66.80
2018-04-12T02:13:32.655Z,67.80
2018-04-12T02:15:58.886Z,70.60
2018-04-12T02:18:25.103Z,74.80
2018-04-12T02:20:51.714Z,66.90
2018-04-12T02:36:17.999Z,68.30
2018-04-12T02:38:44.228Z,68.50
2018-04-12T02:41:10.463Z,68.40
2018-04-12T02:43:36.644Z,68.40
2018-04-12T02:46:03.565Z,69.00
2018-04-12T02:48:29.734Z,68.80
2018-04-12T02:50:55.942Z,69.10
2018-04-12T02:53:22.861Z,68.70
2018-04-12T02:55:49.086Z,68.40
2018-04-12T02:58:15.311Z,68.00
2018-04-12T03:00:41.540Z,67.90
2018-04-12T03:03:07.696Z,68.50
2018-04-12T03:05:34.671Z,69.10
2018-04-12T03:08:02.439Z,68.40
2018-04-12T03:10:28.646Z,70.50
2018-04-12T03:12:55.582Z,69.90
2018-04-12T03:15:22.515Z,70.00
2018-04-12T03:17:48.700Z,69.90
2018-04-12T03:20:14.901Z,69.70
2018-04-12T03:22:42.289Z,70.30
2018-04-12T03:25:08.490Z,69.60
2018-04-12T03:27:34.643Z,70.30
2018-04-12T03:30:00.883Z,70.10
2018-04-12T03:32:27.751Z,69.70
2018-04-12T03:34:53.989Z,69.90
2018-04-12T03:37:20.195Z,71.60
2018-04-12T03:39:46.423Z,69.80
2018-04-12T03:42:12.716Z,69.40
2018-04-12T03:44:39.591Z,68.40
2018-04-12T03:47:05.808Z,68.40
2018-04-12T03:49:32.049Z,68.50
2018-04-12T03:51:58.281Z,69.10
2018-04-12T03:54:24.493Z,68.60
2018-04-12T03:56:50.657Z,68.60
2018-04-12T03:59:16.870Z,68.60
2018-04-12T04:01:43.155Z,68.60
2018-04-12T04:04:09.285Z,68.50
2018-04-12T04:06:35.512Z,69.40
2018-04-12T04:11:30.579Z,73.70
2018-04-12T04:13:56.793Z,67.60
2018-04-12T04:16:35.354Z,67.70
2018-04-12T04:19:15.278Z,67.80
2018-04-12T04:21:41.476Z,66.90
2018-04-12T04:24:08.527Z,66.40
2018-04-12T04:26:35.365Z,66.60
2018-04-12T04:29:01.555Z,66.30
2018-04-12T04:31:29.261Z,67.00
2018-04-12T04:33:56.626Z,66.30
2018-04-12T04:36:23.251Z,66.10
2018-04-12T04:38:49.784Z,65.10
2018-04-12T04:41:16.009Z,68.60
2018-04-12T04:43:43.821Z,65.10
2018-04-12T04:46:10.005Z,66.60
2018-04-12T04:48:36.241Z,72.10
2018-04-12T04:51:02.470Z,66.80
2018-04-12T04:53:28.643Z,69.60
2018-04-12T04:55:55.580Z,66.10
2018-04-12T04:58:21.827Z,66.20
2018-04-12T05:00:48.825Z,66.60
2018-04-12T05:03:15.832Z,65.90
2018-04-12T05:05:42.788Z,66.40
2018-04-12T05:08:10.439Z,66.00
2018-04-12T05:10:37.447Z,65.80
2018-04-12T05:13:03.693Z,71.70
2018-04-12T05:15:31.436Z,65.30
2018-04-12T05:17:57.618Z,69.70
2018-04-12T05:20:24.339Z,69.40
2018-04-12T05:22:50.606Z,70.40
2018-04-12T05:25:16.872Z,70.00
2018-04-12T05:27:43.453Z,70.10
2018-04-12T05:30:10.457Z,65.20
2018-04-12T05:32:37.048Z,67.60
2018-04-12T05:35:03.250Z,69.70
2018-04-12T05:37:29.476Z,80.90
2018-04-12T05:39:56.009Z,72.20
2018-04-12T05:42:22.562Z,65.40
2018-04-12T05:44:49.561Z,65.00
2018-04-12T05:47:16.097Z,65.10
2018-04-12T05:49:42.300Z,64.60
2018-04-12T05:52:08.560Z,67.50
2018-04-12T05:54:34.791Z,65.50
2018-04-12T05:57:01.008Z,66.40
2018-04-12T05:59:27.233Z,68.40
2018-04-12T06:01:53.461Z,65.40
2018-04-12T06:04:19.692Z,71.60
2018-04-12T06:06:47.036Z,64.00
2018-04-12T06:09:13.233Z,65.50
2018-04-12T06:11:39.824Z,61.00
2018-04-12T06:14:07.111Z,60.70
2018-04-12T06:16:34.038Z,60.30
2018-04-12T06:19:00.362Z,66.10
2018-04-12T06:21:27.944Z,64.00
2018-04-12T06:23:55.636Z,56.50
2018-04-12T06:26:22.248Z,60.00
2018-04-12T06:28:48.477Z,57.80
2018-04-12T06:31:14.730Z,66.50
2018-04-12T06:33:41.047Z,60.70
2018-04-12T06:38:39.104Z,57.30
2018-04-12T06:41:05.489Z,59.00
2018-04-12T06:43:32.683Z,57.30
2018-04-12T06:46:01.425Z,59.80
2018-04-12T06:48:29.218Z,57.20
2018-04-12T06:50:55.481Z,56.80
2018-04-12T06:53:21.740Z,56.30
2018-04-12T06:55:48.672Z,56.40
2018-04-12T06:58:15.734Z,56.70
2018-04-12T07:00:42.865Z,56.40
2018-04-12T07:03:09.887Z,55.70
2018-04-12T07:05:36.283Z,56.70
2018-04-12T07:08:02.799Z,57.40
2018-04-12T07:10:29.742Z,56.60
2018-04-12T07:12:57.373Z,56.70
2018-04-12T07:15:23.974Z,56.00
2018-04-12T07:17:51.121Z,55.40
2018-04-12T07:20:17.590Z,56.10
2018-04-12T07:22:43.784Z,54.20
2018-04-12T07:25:10.547Z,53.50
2018-04-12T07:27:36.783Z,52.00
2018-04-12T07:30:03.003Z,50.80
2018-04-12T07:32:29.539Z,50.00
2018-04-12T07:34:55.755Z,50.20
2018-04-12T07:37:21.979Z,48.50
2018-04-12T07:39:48.599Z,52.70
2018-04-12T07:42:14.797Z,48.90
2018-04-12T07:44:41.042Z,45.40
2018-04-12T07:47:08.061Z,44.20
2018-04-12T07:49:34.297Z,43.70
2018-04-12T07:52:00.609Z,42.50
2018-04-12T07:54:26.857Z,41.00
2018-04-12T07:56:53.047Z,40.50
2018-04-12T07:59:19.274Z,40.50
2018-04-12T08:01:45.530Z,40.40
2018-04-12T08:04:12.130Z,38.60
2018-04-12T08:06:38.449Z,39.60
2018-04-12T08:09:05.396Z,37.50
2018-04-12T08:11:32.341Z,37.50
2018-04-12T08:13:58.939Z,37.00
2018-04-12T08:16:25.170Z,41.40
2018-04-12T08:18:51.369Z,37.00
2018-04-12T08:21:17.637Z,39.00
2018-04-12T08:23:43.912Z,35.50
2018-04-12T08:26:10.117Z,34.80
2018-04-12T08:28:37.058Z,35.40
2018-04-12T08:31:04.030Z,36.60
2018-04-12T08:33:30.297Z,40.60
2018-04-12T08:35:56.460Z,38.30
2018-04-12T08:38:24.249Z,38.10
2018-04-12T08:40:50.449Z,38.80
2018-04-12T08:43:17.049Z,37.90
2018-04-12T08:45:43.218Z,38.20
2018-04-12T08:48:10.156Z,37.60
2018-04-12T08:50:36.744Z,38.50
2018-04-12T08:53:03.060Z,37.70
2018-04-12T08:55:30.366Z,37.20
2018-04-12T08:57:56.605Z,39.70
2018-04-12T09:00:23.586Z,36.90
2018-04-12T09:02:49.773Z,37.80
2018-04-12T09:05:17.273Z,38.70
2018-04-12T09:07:43.491Z,44.20
2018-04-12T09:10:10.509Z,37.80
2018-04-12T09:12:37.078Z,37.40
2018-04-12T09:15:03.322Z,40.40
2018-04-12T09:17:29.572Z,39.20
2018-04-12T09:19:57.041Z,38.00
2018-04-12T09:22:23.304Z,42.10
2018-04-12T09:24:51.515Z,39.60
2018-04-12T09:27:17.789Z,38.60
2018-04-12T09:29:44.127Z,38.10
2018-04-12T09:32:10.692Z,37.90
2018-04-12T09:34:37.623Z,37.30
2018-04-12T09:37:03.859Z,36.90
2018-04-12T09:39:31.632Z,36.20
2018-04-12T09:41:59.019Z,35.10
2018-04-12T09:44:25.463Z,34.60
2018-04-12T09:46:52.046Z,34.70
2018-04-12T09:49:19.102Z,35.20
2018-04-12T09:51:46.175Z,35.50
2018-04-12T09:54:13.128Z,35.90
2018-04-12T09:56:39.893Z,37.20
2018-04-12T09:59:06.880Z,37.50
2018-04-12T10:01:39.819Z,38.20
2018-04-12T10:04:12.061Z,39.50
2018-04-12T10:06:39.383Z,40.20
2018-04-12T10:09:11.854Z,44.90
2018-04-12T10:11:38.830Z,40.90
2018-04-12T10:14:06.757Z,41.30
2018-04-12T10:16:32.958Z,48.90
2018-04-12T10:18:59.314Z,50.90
2018-04-12T10:21:25.557Z,45.70
2018-04-12T10:23:52.389Z,47.50
2018-04-12T10:26:19.564Z,47.90
2018-04-12T10:28:45.782Z,53.40
2018-04-12T10:31:13.912Z,44.40
2018-04-12T10:33:41.442Z,47.60
2018-04-12T10:36:08.445Z,44.60
2018-04-12T10:38:34.978Z,44.80
2018-04-12T10:41:01.170Z,50.30
2018-04-12T10:43:30.075Z,45.80
2018-04-12T10:45:57.233Z,46.50
2018-04-12T10:48:23.432Z,49.50
2018-04-12T10:50:50.328Z,47.00
2018-04-12T10:53:25.100Z,46.00
2018-04-12T10:58:22.141Z,44.80
2018-04-12T11:00:48.408Z,43.80
2018-04-12T11:03:16.776Z,42.80
2018-04-12T11:05:44.626Z,43.40
2018-04-12T11:08:10.950Z,42.70
2018-04-12T11:10:37.171Z,43.00
2018-04-12T11:13:04.357Z,41.50
2018-04-12T11:15:30.973Z,40.20
2018-04-12T11:17:57.676Z,39.50
2018-04-12T11:20:25.101Z,39.80
2018-04-12T11:22:52.229Z,40.50
2018-04-12T11:25:19.193Z,40.70
2018-04-12T11:27:46.953Z,39.90
2018-04-12T11:30:14.224Z,38.90
2018-04-12T11:32:42.600Z,39.70
2018-04-12T11:35:10.561Z,39.80
2018-04-12T11:37:37.660Z,40.00
2018-04-12T11:40:04.661Z,42.90
2018-04-12T11:42:30.821Z,39.20
2018-04-12T11:44:57.089Z,38.20
2018-04-12T11:47:23.259Z,38.20
2018-04-12T11:59:35.374Z,42.90
2018-04-12T12:02:01.705Z,37.30
2018-04-12T12:04:28.912Z,41.20
2018-04-12T12:06:55.147Z,40.00
2018-04-12T12:09:21.409Z,38.90
2018-04-12T12:11:47.605Z,40.50
2018-04-12T12:14:14.711Z,39.80
2018-04-12T12:16:41.304Z,41.50
2018-04-12T12:19:07.613Z,43.60
2018-04-12T12:21:34.687Z,45.10
2018-04-12T12:24:01.704Z,43.20
2018-04-12T12:26:27.923Z,41.70
2018-04-12T12:28:54.959Z,39.70
2018-04-12T12:31:22.041Z,37.20
2018-04-12T12:33:51.425Z,36.20
2018-04-12T12:36:19.007Z,34.10
2018-04-12T12:38:45.253Z,35.80
2018-04-12T12:41:13.167Z,36.00
2018-04-12T12:43:39.333Z,37.10
2018-04-12T12:46:05.637Z,37.80
2018-04-12T12:48:34.801Z,39.00
2018-04-12T12:51:03.460Z,39.90
2018-04-12T12:53:30.944Z,41.60
2018-04-12T12:55:57.264Z,41.70
2018-04-12T12:58:24.358Z,43.00
2018-04-12T13:00:51.301Z,44.10
2018-04-12T13:03:19.155Z,44.30
2018-04-12T13:05:46.176Z,44.80
2018-04-12T13:08:13.498Z,44.60
2018-04-12T13:10:39.693Z,45.20
2018-04-12T13:13:06.903Z,44.00
2018-04-12T13:15:33.344Z,43.10
2018-04-12T13:18:01.542Z,43.10
2018-04-12T13:20:27.776Z,45.50
2018-04-12T13:22:55.971Z,43.10
2018-04-12T13:25:22.241Z,45.00
2018-04-12T13:30:19.416Z,39.60
2018-04-12T13:32:45.699Z,44.40
2018-04-12T13:35:12.673Z,39.30
2018-04-12T13:37:39.816Z,41.60
2018-04-12T13:40:06.526Z,40.90
2018-04-12T13:42:34.031Z,40.40
2018-04-12T13:45:00.277Z,44.70
2018-04-12T13:47:27.261Z,41.00
2018-04-12T13:49:55.095Z,41.40
2018-04-12T13:52:21.714Z,40.90
2018-04-12T13:54:48.259Z,41.60
2018-04-12T13:57:15.503Z,46.20
2018-04-12T13:59:43.065Z,42.20
2018-04-12T14:02:10.097Z,43.20
2018-04-12T14:04:37.212Z,44.40
2018-04-12T14:07:04.225Z,43.90
2018-04-12T14:09:31.248Z,43.70
2018-04-12T14:11:58.520Z,43.30
2018-04-12T14:14:26.377Z,43.50
2018-04-12T14:16:52.921Z,44.40
2018-04-12T14:19:19.832Z,43.50
2018-04-12T14:21:46.531Z,43.00
2018-04-12T14:24:13.149Z,44.00
2018-04-12T14:26:40.239Z,43.90
2018-04-12T14:29:10.448Z,44.20
2018-04-12T14:31:38.366Z,44.30
2018-04-12T14:34:05.711Z,46.00
2018-04-12T14:36:38.514Z,44.60
2018-04-12T14:39:05.546Z,44.30
2018-04-12T14:41:33.486Z,45.20
2018-04-12T14:44:01.001Z,44.40
2018-04-12T14:46:28.181Z,44.80
2018-04-12T14:48:56.441Z,44.70
2018-04-12T14:51:23.372Z,44.70
2018-04-12T14:53:49.567Z,44.80
2018-04-12T14:56:17.238Z,45.40
2018-04-12T14:58:43.532Z,45.40
2018-04-12T15:01:12.399Z,45.30
2018-04-12T15:03:40.727Z,44.70
2018-04-12T15:06:06.980Z,44.60
2018-04-12T15:08:33.632Z,45.90
2018-04-12T15:11:02.402Z,45.50
2018-04-12T15:13:28.613Z,46.10
2018-04-12T15:15:54.856Z,45.80
2018-04-12T15:18:22.018Z,46.10
2018-04-12T15:20:48.213Z,45.90
2018-04-12T15:23:16.047Z,46.70
2018-04-12T15:25:43.512Z,46.60
2018-04-12T15:28:10.544Z,47.50
2018-04-12T15:30:36.852Z,47.00
2018-04-12T15:33:04.663Z,47.10
2018-04-12T15:35:32.614Z,47.80
2018-04-12T15:37:58.819Z,47.40
2018-04-12T15:40:26.035Z,47.60
2018-04-12T15:45:22.739Z,47.60
2018-04-12T15:47:48.999Z,47.90
2018-04-12T15:50:16.082Z,48.20
2018-04-12T15:52:43.399Z,47.50
2018-04-12T15:55:09.636Z,47.60
2018-04-12T15:57:36.313Z,47.10
2018-04-12T16:00:03.497Z,47.50
2018-04-12T16:02:30.975Z,47.50
2018-04-12T16:04:59.410Z,48.10
2018-04-12T16:07:26.056Z,48.10
2018-04-12T16:09:53.585Z,48.40
2018-04-12T16:12:21.297Z,49.00
2018-04-12T16:14:47.642Z,48.80
2018-04-12T16:17:14.762Z,49.20
2018-04-12T16:19:41.553Z,48.90
2018-04-12T16:22:07.854Z,48.60
2018-04-12T16:24:34.187Z,48.90
2018-04-12T16:27:00.538Z,49.00
2018-04-12T16:29:27.330Z,49.10
2018-04-12T16:31:53.553Z,48.30
2018-04-12T16:34:19.905Z,49.00
2018-04-12T16:49:51.215Z,49.70
2018-04-12T16:52:17.430Z,49.40
2018-04-12T16:54:44.070Z,48.80
2018-04-12T16:57:11.014Z,49.50
2018-04-12T16:59:38.257Z,49.50
2018-04-12T17:02:06.199Z,49.40
2018-04-12T17:04:33.875Z,49.60
2018-04-12T17:07:00.913Z,49.60
2018-04-12T17:09:27.143Z,49.50
2018-04-12T17:11:53.397Z,49.50
2018-04-12T17:14:20.385Z,50.20
2018-04-12T17:16:46.756Z,50.20
2018-04-12T17:19:13.096Z,50.30
2018-04-12T17:21:39.360Z,50.70
2018-04-12T17:26:59.661Z,51.40
2018-04-12T17:29:26.948Z,52.00
2018-04-12T17:31:54.034Z,51.80
2018-04-12T17:34:20.267Z,51.60
2018-04-12T17:36:46.562Z,52.20
2018-04-12T17:39:14.367Z,51.60
2018-04-12T17:41:41.688Z,51.40
2018-04-12T17:44:08.832Z,51.30
2018-04-12T17:46:35.090Z,51.30
2018-04-12T17:49:01.462Z,51.50
2018-04-12T17:51:28.528Z,52.10
2018-04-12T17:53:54.857Z,52.10
2018-04-12T17:56:21.987Z,51.90
2018-04-12T17:58:50.925Z,52.20
2018-04-12T18:01:17.176Z,52.10
2018-04-12T18:03:43.707Z,52.60
2018-04-12T18:06:11.832Z,51.90
2018-04-12T18:08:39.905Z,51.90
2018-04-12T18:11:06.159Z,51.70
2018-04-12T18:13:34.828Z,51.80
2018-04-12T18:16:01.681Z,51.50
2018-04-12T18:18:28.620Z,51.70
2018-04-12T18:20:54.918Z,51.40
2018-04-12T18:23:23.741Z,52.30
2018-04-12T18:25:50.032Z,52.10
2018-04-12T18:28:18.353Z,52.50
2018-04-12T18:40:30.982Z,52.00
2018-04-12T18:42:58.056Z,52.00
2018-04-12T18:45:26.682Z,53.90
2018-04-12T18:47:54.823Z,53.70
2018-04-12T18:50:22.779Z,53.90
2018-04-12T19:02:35.722Z,55.00
2018-04-12T19:05:01.984Z,54.40
2018-04-12T19:07:28.226Z,54.40
2018-04-12T19:09:56.005Z,55.30
2018-04-12T19:12:22.301Z,54.80
2018-04-12T19:14:49.106Z,55.30
2018-04-12T19:17:15.452Z,55.10
2018-04-12T19:19:41.716Z,56.00
2018-04-12T19:22:10.430Z,55.70
2018-04-12T19:24:38.452Z,55.80
2018-04-12T19:27:05.678Z,55.70
2018-04-12T19:29:34.891Z,56.10
2018-04-12T19:32:01.798Z,56.20
2018-04-12T19:34:28.898Z,55.90
2018-04-12T19:36:56.201Z,56.20
2018-04-12T19:39:22.457Z,56.10
2018-04-12T19:41:50.520Z,56.10
2018-04-12T19:44:17.928Z,56.40
2018-04-12T19:46:44.236Z,56.40
2018-04-12T19:49:11.940Z,57.70
2018-04-12T19:51:38.929Z,57.00
2018-04-12T19:54:05.233Z,56.40
2018-04-12T19:56:31.488Z,57.70
2018-04-12T20:08:42.717Z,57.00
2018-04-12T20:11:09.033Z,57.00
2018-04-12T20:13:50.949Z,57.60
2018-04-12T20:16:18.545Z,57.50
2018-04-12T20:18:46.217Z,56.80
2018-04-12T20:21:12.471Z,56.60
2018-04-12T20:23:39.492Z,57.00
2018-04-12T20:26:05.764Z,56.50
2018-04-12T20:38:23.686Z,58.00
2018-04-12T20:40:50.935Z,57.70
2018-04-12T20:43:17.149Z,57.60
2018-04-12T20:45:44.121Z,58.00
2018-04-12T20:48:10.446Z,57.50
2018-04-12T20:50:36.674Z,57.40
2018-04-12T20:53:04.281Z,57.60
2018-04-12T20:55:30.506Z,57.70
2018-04-12T20:57:57.770Z,57.70
2018-04-12T21:00:24.260Z,57.80
2018-04-12T21:02:51.163Z,57.50
2018-04-12T21:05:18.303Z,58.00
2018-04-12T21:07:44.591Z,57.70
2018-04-12T21:10:10.838Z,58.20
2018-04-12T21:12:37.071Z,58.60
2018-04-12T21:15:04.871Z,58.50
2018-04-12T21:17:31.870Z,59.50
2018-04-12T21:19:58.736Z,59.20
2018-04-12T21:22:24.988Z,58.90
2018-04-12T21:24:52.798Z,59.50
2018-04-12T21:27:19.394Z,58.90
2018-04-12T21:29:45.639Z,58.80
2018-04-12T21:32:12.541Z,58.80
2018-04-12T21:34:39.806Z,58.30
2018-04-12T21:37:06.083Z,58.40
2018-04-12T21:39:32.366Z,58.30
2018-04-12T21:41:58.600Z,58.80
2018-04-12T21:44:26.097Z,58.90
2018-04-12T21:46:52.314Z,58.80
2018-04-12T21:49:18.524Z,59.50
2018-04-12T21:51:45.486Z,60.50
2018-04-12T21:54:13.424Z,60.60
2018-04-12T21:56:39.637Z,60.40
2018-04-12T21:59:05.848Z,60.00
2018-04-12T22:01:33.250Z,59.60
2018-04-12T22:04:00.116Z,59.50
2018-04-12T22:06:27.239Z,59.10
2018-04-12T22:08:54.179Z,58.50
2018-04-12T22:11:20.395Z,58.90
2018-04-12T22:13:47.518Z,59.00
2018-04-12T22:16:14.796Z,58.90
2018-04-12T22:18:40.989Z,58.90
2018-04-12T22:21:07.223Z,59.10
2018-04-12T22:33:23.448Z,58.70
2018-04-12T22:35:52.328Z,58.70
2018-04-12T22:38:19.556Z,58.70
2018-04-12T22:40:45.763Z,58.50
2018-04-12T22:43:11.986Z,59.20
2018-04-12T22:45:38.213Z,59.30
2018-04-12T22:48:05.220Z,59.70
2018-04-12T22:50:31.413Z,59.50
2018-04-12T22:52:57.608Z,59.50
2018-04-12T22:55:23.833Z,59.20
2018-04-12T22:57:50.936Z,59.50
2018-04-12T23:00:17.276Z,59.50
2018-04-12T23:02:45.685Z,59.90
2018-04-12T23:05:12.691Z,60.00
2018-04-12T23:07:39.262Z,59.40
2018-04-12T23:10:06.217Z,60.00
2018-04-12T23:12:33.566Z,59.20
2018-04-12T23:15:00.649Z,60.00
2018-04-12T23:17:26.859Z,59.90
2018-04-12T23:19:53.125Z,58.70
2018-04-12T23:22:19.348Z,59.10
2018-04-12T23:24:45.591Z,58.00
2018-04-12T23:27:11.776Z,58.00
2018-04-12T23:29:38.005Z,58.00
2018-04-12T23:32:04.901Z,58.60
2018-04-12T23:34:31.078Z,58.00
2018-04-12T23:36:58.230Z,58.10
2018-04-12T23:39:24.489Z,58.10
2018-04-12T23:41:51.734Z,58.10
2018-04-12T23:44:17.931Z,58.00
2018-04-12T23:46:44.868Z,58.40
2018-04-12T23:49:11.818Z,58.70
2018-04-12T23:51:39.638Z,58.60
2018-04-12T23:54:05.853Z,58.60
2018-04-12T23:56:32.042Z,58.10
2018-04-12T23:58:59.364Z,58.50
